Main page
METAR-TAF:

METAR-TAF

Airports :

Hercílio Luz International Airport

Florianópolis, Santa Catarina, Brazil

latitude: 27-40S, longitude: 048-33W, elevation: 5 m

Current weather observation

The report was made 36 minutes ago, at 04:00 UTC
Wind 6 kt from the South/Southwest
Temperature 16°C
Humidity 68%
Pressure 1025 hPa
Visibility 10 km or more
Few clouds at a height of 4000 ft
Broken clouds at a height of 6000 ft

METAR: SBFL 160400Z 20006KT 9999 FEW040 BKN060 16/10 Q1025

Time: 01:36 (04:36 UTC)

Forecast

The report was made 6 hours and 6 minutes ago, at 22:30 UTC
Forecast valid from 16 at 00 UTC to 16 at 24 UTC
Wind 7 kt from the South
Visibility 10 km or more
Scattered clouds at a height of 3000 ft
Becoming
from 16 at 12 UTC to 16 at 14 UTC
Scattered clouds at a height of 4000 ft

TAF: SBFL 152230Z 1600/1624 19007KT 9999 SCT030 TN13/1608Z TX19/1618Z BECMG 1612/1614 SCT040 RMK PEB

Weather observations and forecasts of more than 4000 airports (METAR and TAF reports).

The available stations are represented by yellow and red dots on the map.

Hover mouse over dot to see the name of the station.

Then click to see weather observations and forecasts.

To change the map : click on the green buttons with a black cross to zoom in, on the green button with a dash to zoom out, or on the green arrows for adjacent maps.


METAR-TAF: